Time;durP1;ratioP1;P1;durP2;ratioP2;P2;SDS_P1;SDS_P2;PMS_P1;PMS_P2;Temp;Humidity;BMP_temperature;BMP_pressure;BME280_temperature;BME280_humidity;BME280_pressure;Samples;Min_cycle;Max_cycle;Signal;HPM_P1;HPM_P2
2021/07/18 00:01:59;;;;;;;20.10;15.83;;;;;;;19.63;100.00;98999.76;1724655;82;21029;-69
2021/07/18 00:04:25;;;;;;;27.37;16.10;;;;;;;19.64;100.00;99003.52;1730937;82;20967;-69
2021/07/18 00:06:53;;;;;;;23.55;15.45;;;;;;;19.66;100.00;99002.53;1732241;82;20893;-70
2021/07/18 00:09:21;;;;;;;22.75;15.10;;;;;;;19.70;100.00;99006.73;1729348;82;20984;-69
2021/07/18 00:11:49;;;;;;;26.10;15.80;;;;;;;19.70;100.00;99006.73;1727957;82;20892;-70
2021/07/18 00:14:16;;;;;;;27.35;15.63;;;;;;;19.69;100.00;99010.11;1733692;82;20979;-69
2021/07/18 00:16:44;;;;;;;25.50;14.80;;;;;;;19.66;100.00;99009.49;1729660;83;20889;-69
2021/07/18 00:19:12;;;;;;;24.95;15.08;;;;;;;19.65;100.00;99001.53;1728084;82;21443;-70
2021/07/18 00:21:38;;;;;;;25.00;14.45;;;;;;;19.64;100.00;98992.38;1730401;82;20979;-69
2021/07/18 00:24:05;;;;;;;26.45;15.35;;;;;;;19.64;100.00;98981.24;1729897;83;21476;-69
2021/07/18 00:26:31;;;;;;;27.02;17.48;;;;;;;19.65;100.00;98983.43;1721928;82;20924;-69
2021/07/18 00:28:58;;;;;;;24.40;16.37;;;;;;;19.63;100.00;98976.89;1710180;82;21015;-69
2021/07/18 00:31:25;;;;;;;28.85;17.17;;;;;;;19.64;100.00;98975.67;1734595;82;20943;-70
2021/07/18 00:33:52;;;;;;;25.32;17.27;;;;;;;19.67;100.00;98972.70;1731455;82;20963;-70
2021/07/18 00:36:19;;;;;;;29.57;16.62;;;;;;;19.68;100.00;98970.92;1719300;82;21159;-70
2021/07/18 00:38:47;;;;;;;25.95;16.87;;;;;;;19.70;100.00;98971.33;1721086;82;20975;-69
2021/07/18 00:41:14;;;;;;;21.65;15.83;;;;;;;19.70;100.00;98962.17;1733599;81;20988;-69
2021/07/18 00:43:40;;;;;;;23.70;15.08;;;;;;;19.65;100.00;98963.34;1722663;82;21062;-69
2021/07/18 00:46:06;;;;;;;20.10;12.30;;;;;;;19.59;100.00;98952.41;1729307;82;21045;-69
2021/07/18 00:48:33;;;;;;;28.40;16.00;;;;;;;19.54;100.00;98955.56;1726418;82;21548;-69
2021/07/18 00:50:59;;;;;;;26.23;15.00;;;;;;;19.48;100.00;98948.73;1718915;82;20983;-69
2021/07/18 00:53:26;;;;;;;24.75;16.07;;;;;;;19.43;100.00;98949.11;1732511;82;21056;-69
2021/07/18 00:55:55;;;;;;;26.55;15.90;;;;;;;19.39;100.00;98945.50;1734514;82;20841;-69
2021/07/18 00:58:22;;;;;;;25.17;15.18;;;;;;;19.33;100.00;98945.08;1722727;81;21094;-69
2021/07/18 01:00:50;;;;;;;25.90;14.18;;;;;;;19.30;100.00;98947.84;1726830;82;20879;-69
2021/07/18 01:03:16;;;;;;;28.47;15.83;;;;;;;19.26;100.00;98947.02;1728405;82;21474;-69
2021/07/18 01:05:43;;;;;;;21.95;14.15;;;;;;;19.23;100.00;98945.00;1728237;82;20928;-69
2021/07/18 01:08:10;;;;;;;25.43;13.85;;;;;;;19.21;100.00;98950.16;1729393;82;20869;-70
2021/07/18 01:10:38;;;;;;;27.90;15.60;;;;;;;19.17;100.00;98952.92;1729645;83;20944;-69
2021/07/18 01:13:05;;;;;;;20.80;15.88;;;;;;;19.18;100.00;98960.67;1729493;82;21002;-69
2021/07/18 01:15:31;;;;;;;27.02;17.42;;;;;;;19.17;100.00;98955.70;1724961;82;20891;-69
2021/07/18 01:17:58;;;;;;;26.62;16.20;;;;;;;19.18;100.00;98952.33;1724786;82;21596;-70
2021/07/18 01:20:24;;;;;;;28.32;16.42;;;;;;;19.24;100.00;98953.56;1724299;82;21054;-69
2021/07/18 01:22:50;;;;;;;23.42;15.68;;;;;;;19.25;100.00;98955.95;1725477;82;21015;-69
2021/07/18 01:25:17;;;;;;;23.67;15.70;;;;;;;19.25;100.00;98951.78;1729033;82;21127;-69
2021/07/18 01:27:44;;;;;;;25.77;14.33;;;;;;;19.26;100.00;98945.62;1724469;82;20927;-69
2021/07/18 01:30:13;;;;;;;24.85;17.17;;;;;;;19.28;100.00;98946.03;1722965;81;20936;-69
2021/07/18 01:32:42;;;;;;;28.83;17.82;;;;;;;19.30;100.00;98945.05;1728624;82;20956;-70
2021/07/18 01:35:11;;;;;;;22.67;16.15;;;;;;;19.32;100.00;98938.50;1725546;82;21038;-69
2021/07/18 01:37:38;;;;;;;26.73;15.40;;;;;;;19.34;100.00;98936.13;1703016;82;21956;-69
2021/07/18 01:40:10;;;;;;;21.68;14.28;;;;;;;19.35;100.00;98927.98;1729549;83;20976;-69
2021/07/18 01:42:40;;;;;;;25.30;15.30;;;;;;;19.32;100.00;98931.55;1724183;81;20907;-70
2021/07/18 01:45:08;;;;;;;19.07;13.38;;;;;;;19.26;100.00;98928.34;1730370;82;20990;-69
2021/07/18 01:47:35;;;;;;;20.10;14.45;;;;;;;19.24;100.00;98935.47;1727661;82;20971;-69
2021/07/18 01:50:04;;;;;;;27.87;16.02;;;;;;;19.17;100.00;98932.05;1727043;82;21505;-69
2021/07/18 01:52:30;;;;;;;23.38;15.38;;;;;;;19.11;100.00;98934.40;1726212;82;20925;-69
2021/07/18 01:54:57;;;;;;;26.40;14.87;;;;;;;19.10;100.00;98941.15;1727048;82;20980;-69
2021/07/18 01:57:24;;;;;;;27.35;17.05;;;;;;;19.06;100.00;98930.59;1737637;81;21015;-69
2021/07/18 01:59:50;;;;;;;23.87;15.53;;;;;;;19.05;100.00;98926.24;1722385;82;21469;-69
2021/07/18 02:02:17;;;;;;;27.10;16.17;;;;;;;19.13;100.00;98932.03;1721660;82;21484;-69
2021/07/18 02:04:47;;;;;;;26.37;15.58;;;;;;;19.19;100.00;98929.68;1728789;82;20916;-69
2021/07/18 02:07:14;;;;;;;20.48;14.45;;;;;;;19.24;100.00;98931.30;1726285;82;21439;-69
2021/07/18 02:09:40;;;;;;;23.27;16.02;;;;;;;19.26;100.00;98933.10;1726896;82;20934;-69
2021/07/18 02:12:07;;;;;;;32.30;16.27;;;;;;;19.27;100.00;98922.17;1727018;82;20980;-69
2021/07/18 02:14:40;;;;;;;21.07;14.65;;;;;;;19.30;100.00;98923.59;1726339;82;21037;-70
2021/07/18 02:17:07;;;;;;;31.20;14.70;;;;;;;19.35;100.00;98916.27;1734693;82;20983;-69
2021/07/18 02:19:33;;;;;;;23.85;15.25;;;;;;;19.41;100.00;98920.27;1733671;82;21448;-69
2021/07/18 02:22:00;;;;;;;21.82;14.93;;;;;;;19.46;100.00;98917.71;1723982;82;20978;-69
2021/07/18 02:24:26;;;;;;;26.20;16.02;;;;;;;19.51;100.00;98918.77;1724387;82;21543;-69
2021/07/18 02:26:54;;;;;;;26.42;15.83;;;;;;;19.56;100.00;98919.78;1718488;82;21038;-69
2021/07/18 02:29:21;;;;;;;29.07;16.30;;;;;;;19.58;100.00;98916.02;1729477;83;20924;-69
2021/07/18 02:31:47;;;;;;;24.77;15.35;;;;;;;19.61;100.00;98916.63;1726976;82;20932;-70
2021/07/18 02:34:14;;;;;;;23.40;15.18;;;;;;;19.62;100.00;98916.03;1717881;82;21129;-70
2021/07/18 02:36:40;;;;;;;23.05;15.20;;;;;;;19.63;100.00;98918.42;1728772;82;20935;-70
2021/07/18 02:39:07;;;;;;;23.92;14.38;;;;;;;19.65;100.00;98924.37;1729526;82;21188;-70
2021/07/18 02:41:36;;;;;;;24.72;16.15;;;;;;;19.66;100.00;98925.96;1727212;81;21049;-69
2021/07/18 02:44:05;;;;;;;25.35;15.35;;;;;;;19.65;100.00;98929.94;1722558;82;20899;-69
2021/07/18 02:46:32;;;;;;;30.23;16.42;;;;;;;19.66;100.00;98920.39;1726609;82;20965;-69
2021/07/18 02:48:58;;;;;;;26.07;15.50;;;;;;;19.70;100.00;98931.55;1685096;83;20896;-69
2021/07/18 02:51:25;;;;;;;23.38;15.18;;;;;;;19.73;100.00;98928.78;1725075;82;21104;-69
2021/07/18 02:53:51;;;;;;;26.42;15.15;;;;;;;19.76;100.00;98929.39;1724689;82;20932;-69
2021/07/18 02:56:19;;;;;;;26.65;15.58;;;;;;;19.79;100.00;98929.20;1731337;82;20912;-69
2021/07/18 02:58:46;;;;;;;25.27;15.08;;;;;;;19.84;100.00;98928.02;1717325;82;21235;-69
2021/07/18 03:01:12;;;;;;;28.35;15.80;;;;;;;19.87;100.00;98924.45;1722171;82;20879;-69
2021/07/18 03:03:39;;;;;;;26.73;14.23;;;;;;;19.89;100.00;98931.23;1723574;82;21126;-69
2021/07/18 03:06:06;;;;;;;24.35;15.40;;;;;;;19.90;100.00;98925.06;1724141;82;21672;-69
2021/07/18 03:08:32;;;;;;;27.05;15.20;;;;;;;19.90;100.00;98925.06;1729518;82;20904;-69
2021/07/18 03:10:59;;;;;;;25.00;14.45;;;;;;;19.90;100.00;98925.86;1722578;82;20999;-69
2021/07/18 03:13:25;;;;;;;27.85;15.32;;;;;;;19.92;100.00;98921.29;1720356;82;21557;-69
2021/07/18 03:15:52;;;;;;;25.02;14.60;;;;;;;19.95;100.00;98920.50;1721416;82;21662;-70
2021/07/18 03:18:19;;;;;;;23.55;15.65;;;;;;;19.97;100.00;98916.73;1727389;82;21542;-70
2021/07/18 03:20:46;;;;;;;21.35;15.10;;;;;;;19.99;100.00;98914.34;1725587;82;20983;-69
2021/07/18 03:23:12;;;;;;;25.82;16.57;;;;;;;20.03;100.00;98921.52;1723034;82;21038;-69
2021/07/18 03:25:40;;;;;;;25.57;16.48;;;;;;;20.08;100.00;98924.52;1725022;82;21007;-69
2021/07/18 03:28:06;;;;;;;23.35;15.38;;;;;;;20.15;100.00;98928.72;1726568;82;21073;-70
2021/07/18 03:30:33;;;;;;;24.77;15.13;;;;;;;20.22;100.00;98937.69;1723395;82;20995;-69
2021/07/18 03:33:00;;;;;;;19.52;15.63;;;;;;;20.30;100.00;98940.67;1725130;82;20940;-69
2021/07/18 03:35:26;;;;;;;28.10;15.50;;;;;;;20.42;100.00;98937.53;1732442;82;21668;-69
2021/07/18 03:37:53;;;;;;;25.65;15.08;;;;;;;20.51;100.00;98937.15;1735054;82;20925;-69
2021/07/18 03:40:19;;;;;;;28.92;16.42;;;;;;;20.56;100.00;98933.37;1724966;81;20975;-69
2021/07/18 03:42:46;;;;;;;24.63;16.05;;;;;;;20.64;100.00;98940.55;1725440;82;21054;-69
2021/07/18 03:45:12;;;;;;;25.90;17.48;;;;;;;20.72;100.00;98934.37;1728199;82;20856;-69
2021/07/18 03:47:39;;;;;;;27.80;16.90;;;;;;;20.79;100.00;98930.20;1728261;82;20939;-69
2021/07/18 03:50:07;;;;;;;28.57;17.57;;;;;;;20.86;100.00;98936.34;1719846;82;21034;-71
2021/07/18 03:52:34;;;;;;;27.20;16.57;;;;;;;20.89;100.00;98941.13;1727284;82;21976;-71
2021/07/18 03:55:02;;;;;;;25.57;16.60;;;;;;;20.93;100.00;98937.13;1722387;82;20908;-71
2021/07/18 03:57:29;;;;;;;33.85;17.42;;;;;;;20.98;100.00;98943.70;1729610;82;21483;-69
2021/07/18 03:59:55;;;;;;;23.73;15.38;;;;;;;21.04;100.00;98930.15;1733013;82;20997;-69
2021/07/18 04:02:22;;;;;;;24.70;16.05;;;;;;;21.08;100.00;98930.34;1725433;82;20992;-69
2021/07/18 04:04:48;;;;;;;28.55;16.23;;;;;;;21.14;100.00;98927.15;1729079;81;21924;-69
2021/07/18 04:07:15;;;;;;;25.80;14.33;;;;;;;21.20;100.00;98936.70;1724380;82;21112;-69
2021/07/18 04:09:42;;;;;;;29.07;15.75;;;;;;;21.28;100.00;98941.11;1726733;82;21465;-69
2021/07/18 04:12:10;;;;;;;29.23;14.53;;;;;;;21.36;100.00;98937.11;1735146;82;20873;-69
2021/07/18 04:14:37;;;;;;;31.73;16.00;;;;;;;21.47;100.00;98938.45;1727413;82;20991;-69
2021/07/18 04:17:04;;;;;;;28.17;15.60;;;;;;;21.59;100.00;98938.02;1733484;82;21589;-69
2021/07/18 04:19:31;;;;;;;23.40;14.30;;;;;;;21.69;100.00;98928.20;1725427;82;20845;-69
2021/07/18 04:21:57;;;;;;;34.53;15.78;;;;;;;21.79;100.00;98932.75;1731159;82;20935;-70
2021/07/18 04:24:23;;;;;;;27.98;14.80;;;;;;;21.85;100.00;98938.12;1731938;81;21043;-69
2021/07/18 04:26:50;;;;;;;26.97;15.78;;;;;;;21.92;100.00;98932.50;1723579;82;21564;-69
2021/07/18 04:29:16;;;;;;;20.57;14.30;;;;;;;22.01;100.00;98935.62;1727222;82;21109;-69
2021/07/18 04:31:43;;;;;;;33.00;14.90;;;;;;;22.07;100.00;98932.02;1724935;82;20892;-69
2021/07/18 04:34:09;;;;;;;26.70;15.03;;;;;;;22.13;100.00;98929.59;1722929;82;21490;-69
2021/07/18 04:36:36;;;;;;;29.63;13.98;;;;;;;22.20;100.00;98930.95;1700046;82;20980;-70
2021/07/18 04:39:02;;;;;;;25.92;13.80;;;;;;;22.28;100.00;98937.30;1725768;82;20952;-69
2021/07/18 04:41:29;;;;;;;28.47;15.88;;;;;;;22.36;100.00;98939.64;1725049;82;22078;-69
2021/07/18 04:43:56;;;;;;;28.02;15.03;;;;;;;22.46;100.00;98939.38;1724714;82;20940;-69
2021/07/18 04:46:24;;;;;;;28.30;14.90;;;;;;;22.53;100.00;98933.71;1724441;82;21119;-69
2021/07/18 04:48:50;;;;;;;25.20;15.08;;;;;;;22.60;99.49;98933.66;1722801;82;20891;-69
2021/07/18 04:51:17;;;;;;;21.42;14.47;;;;;;;22.67;98.39;98929.41;1730171;82;21513;-70
2021/07/18 04:53:44;;;;;;;32.60;15.25;;;;;;;22.73;98.66;98938.95;1729523;82;21118;-70
2021/07/18 04:56:11;;;;;;;26.17;14.80;;;;;;;22.80;98.91;98935.34;1729494;82;20920;-71
2021/07/18 04:58:37;;;;;;;25.68;15.05;;;;;;;22.86;98.08;98938.48;1728377;82;20952;-70
2021/07/18 05:01:05;;;;;;;29.40;16.12;;;;;;;22.92;97.38;98945.23;1728626;82;20900;-69
2021/07/18 05:03:31;;;;;;;27.50;15.80;;;;;;;22.99;96.56;98951.56;1733704;82;20941;-70
2021/07/18 05:05:58;;;;;;;20.50;14.65;;;;;;;23.10;96.04;98950.67;1724081;82;21736;-70
2021/07/18 05:08:24;;;;;;;26.12;16.35;;;;;;;23.22;95.83;98958.53;1722423;82;20987;-70
2021/07/18 05:10:51;;;;;;;25.30;14.78;;;;;;;23.37;95.94;98956.58;1724191;82;21810;-70
2021/07/18 05:13:17;;;;;;;23.57;14.40;;;;;;;23.52;96.06;98954.42;1720193;82;21174;-70
2021/07/18 05:15:44;;;;;;;25.97;16.95;;;;;;;23.66;94.80;98954.90;1721355;82;20916;-69
2021/07/18 05:18:13;;;;;;;28.75;17.10;;;;;;;23.74;92.62;98954.19;1738920;82;21471;-70
2021/07/18 05:20:40;;;;;;;30.32;17.70;;;;;;;23.78;92.79;98947.33;1731206;82;20935;-69
2021/07/18 05:23:07;;;;;;;30.32;16.55;;;;;;;23.88;93.32;98954.80;1732280;82;20956;-70
2021/07/18 05:25:34;;;;;;;34.60;16.57;;;;;;;23.99;92.20;98947.06;1734187;82;21439;-70
2021/07/18 05:28:00;;;;;;;26.87;16.90;;;;;;;24.07;91.81;98949.16;1723204;82;20872;-70
2021/07/18 05:30:27;;;;;;;25.02;16.27;;;;;;;24.14;91.99;98949.07;1730044;82;21481;-70
2021/07/18 05:32:53;;;;;;;32.63;15.53;;;;;;;24.23;92.48;98950.75;1718444;82;20983;-70
2021/07/18 05:35:20;;;;;;;33.30;17.48;;;;;;;24.34;92.03;98956.21;1722800;82;20974;-70
2021/07/18 05:37:46;;;;;;;32.48;17.98;;;;;;;24.43;92.00;98945.86;1726472;82;20983;-70
2021/07/18 05:40:13;;;;;;;30.70;16.17;;;;;;;24.49;91.34;98948.38;1729848;82;20855;-69
2021/07/18 05:42:39;;;;;;;23.25;16.90;;;;;;;24.57;88.79;98949.25;1730611;82;21005;-69
2021/07/18 05:45:09;;;;;;;33.00;18.15;;;;;;;24.62;88.14;98948.77;1721979;82;21090;-70
2021/07/18 05:47:36;;;;;;;28.30;17.17;;;;;;;24.69;86.01;98955.68;1729301;82;21502;-69
2021/07/18 05:50:05;;;;;;;26.97;18.40;;;;;;;24.74;85.73;98947.39;1726584;82;20903;-69
2021/07/18 05:52:31;;;;;;;31.57;18.30;;;;;;;24.77;85.22;98948.55;1735612;82;20885;-70
2021/07/18 05:54:58;;;;;;;31.40;19.10;;;;;;;24.81;85.73;98952.89;1727812;82;21135;-69
2021/07/18 05:57:25;;;;;;;36.45;18.60;;;;;;;24.91;85.78;98947.69;1727315;82;21102;-69
2021/07/18 05:59:51;;;;;;;29.85;18.32;;;;;;;25.00;85.17;98945.16;1730842;82;21441;-69
2021/07/18 06:02:18;;;;;;;28.83;18.17;;;;;;;25.06;86.12;98945.45;1724065;82;20987;-69
2021/07/18 06:04:44;;;;;;;31.50;19.37;;;;;;;25.14;85.94;98948.94;1717284;82;20845;-69
2021/07/18 06:07:11;;;;;;;27.30;18.20;;;;;;;25.24;85.98;98943.74;1721414;82;20983;-70
2021/07/18 06:09:37;;;;;;;32.00;19.42;;;;;;;25.36;85.78;98947.33;1722286;82;21164;-69
2021/07/18 06:12:06;;;;;;;29.27;19.30;;;;;;;25.46;85.25;98940.69;1713592;82;21018;-69
2021/07/18 06:14:32;;;;;;;31.93;18.55;;;;;;;25.58;84.74;98944.88;1728406;82;20948;-69
2021/07/18 06:16:59;;;;;;;32.60;18.90;;;;;;;25.66;83.48;98949.97;1730383;82;20925;-69
2021/07/18 06:19:25;;;;;;;35.90;19.20;;;;;;;25.77;84.52;98944.13;1725406;82;21130;-70
2021/07/18 06:21:52;;;;;;;35.38;19.35;;;;;;;25.91;84.40;98955.09;1727846;82;21454;-69
2021/07/18 06:24:18;;;;;;;35.50;19.92;;;;;;;26.01;82.76;98960.28;1727771;82;20871;-69
2021/07/18 06:26:45;;;;;;;35.50;17.85;;;;;;;26.10;82.42;98960.48;1729472;82;20947;-69
2021/07/18 06:29:11;;;;;;;31.25;18.98;;;;;;;26.20;82.10;98955.86;1724731;82;21430;-69
2021/07/18 06:31:37;;;;;;;26.25;18.52;;;;;;;26.27;81.95;98957.91;1726427;82;21106;-70
2021/07/18 06:34:04;;;;;;;33.35;18.32;;;;;;;26.33;80.47;98956.80;1727533;82;21651;-70
2021/07/18 06:36:30;;;;;;;36.65;19.25;;;;;;;26.34;80.15;98958.39;1729684;82;20926;-69
2021/07/18 06:38:57;;;;;;;30.48;18.75;;;;;;;26.42;80.14;98957.00;1729469;82;20909;-70
2021/07/18 06:41:25;;;;;;;34.10;18.32;;;;;;;26.52;79.48;98958.78;1725251;81;20974;-69
2021/07/18 06:43:51;;;;;;;28.62;17.98;;;;;;;26.64;80.31;98956.66;1727185;82;21481;-69
2021/07/18 06:46:18;;;;;;;31.55;18.48;;;;;;;26.78;78.01;98955.53;1728039;82;21559;-69
2021/07/18 06:48:44;;;;;;;28.23;19.23;;;;;;;26.85;78.45;98950.34;1724553;82;20920;-70
2021/07/18 06:51:10;;;;;;;37.93;19.15;;;;;;;26.97;78.26;98956.70;1723470;82;21045;-70
2021/07/18 06:53:37;;;;;;;29.85;19.02;;;;;;;27.11;77.69;98952.13;1724464;82;21594;-70
2021/07/18 06:56:05;;;;;;;26.17;19.27;;;;;;;27.24;77.82;98954.98;1723333;82;21128;-69
2021/07/18 06:58:31;;;;;;;24.43;16.05;;;;;;;27.35;76.62;98954.09;1721216;82;21035;-69
2021/07/18 07:00:58;;;;;;;26.70;17.12;;;;;;;27.41;74.53;98951.52;1730497;82;20932;-69
2021/07/18 07:03:24;;;;;;;26.87;17.77;;;;;;;27.46;75.02;98951.77;1730621;82;21435;-70
2021/07/18 07:05:50;;;;;;;32.20;18.48;;;;;;;27.55;74.38;98956.16;1736036;82;20853;-69
2021/07/18 07:08:18;;;;;;;24.20;18.10;;;;;;;27.67;75.21;98953.25;1731930;81;21009;-70
2021/07/18 07:10:45;;;;;;;25.50;17.30;;;;;;;27.82;76.38;98952.98;1731258;82;21431;-70
2021/07/18 07:13:11;;;;;;;29.12;17.12;;;;;;;27.98;74.38;98958.39;1703428;82;21097;-70
2021/07/18 07:15:38;;;;;;;24.95;16.48;;;;;;;28.07;73.19;98957.91;1722052;82;21058;-70
2021/07/18 07:18:06;;;;;;;32.90;16.17;;;;;;;28.18;74.91;98962.63;1721435;82;21435;-70
2021/07/18 07:20:33;;;;;;;26.45;15.65;;;;;;;28.32;72.34;98962.02;1727016;81;21115;-70
2021/07/18 07:22:59;;;;;;;24.52;15.63;;;;;;;28.38;70.82;98965.87;1725622;82;20893;-70
2021/07/18 07:25:25;;;;;;;22.40;15.00;;;;;;;28.42;70.27;98961.69;1728048;82;21004;-70
2021/07/18 07:27:52;;;;;;;26.62;15.32;;;;;;;28.50;70.57;98963.67;1733989;82;20939;-70
2021/07/18 07:30:18;;;;;;;21.12;15.38;;;;;;;28.60;69.31;98963.96;1737211;82;21025;-70
2021/07/18 07:32:45;;;;;;;25.32;14.87;;;;;;;28.71;69.30;98964.41;1721182;82;21713;-70
2021/07/18 07:35:13;;;;;;;22.95;14.23;;;;;;;28.88;69.13;98968.70;1716049;82;21426;-70
2021/07/18 07:37:43;;;;;;;23.92;14.90;;;;;;;29.03;67.00;98973.88;1729395;82;20936;-70
2021/07/18 07:40:13;;;;;;;18.48;12.82;;;;;;;29.12;65.40;98969.73;1725330;82;21002;-70
2021/07/18 07:42:40;;;;;;;21.10;14.63;;;;;;;29.21;65.74;98974.86;1726405;82;21436;-70
2021/07/18 07:45:09;;;;;;;20.15;15.23;;;;;;;29.31;65.52;98977.78;1724727;82;21110;-70
2021/07/18 07:47:37;;;;;;;22.52;14.35;;;;;;;29.38;64.54;98969.84;1729717;82;20982;-70
2021/07/18 07:50:06;;;;;;;21.30;14.70;;;;;;;29.47;66.29;98977.00;1720859;82;20935;-70
2021/07/18 07:52:32;;;;;;;20.62;13.55;;;;;;;29.58;64.29;98976.00;1716382;82;20938;-70
2021/07/18 07:54:59;;;;;;;19.27;13.28;;;;;;;29.62;63.54;98973.05;1729763;82;20938;-70
2021/07/18 07:57:26;;;;;;;19.15;14.63;;;;;;;29.68;64.24;98978.28;1736670;82;21938;-70
2021/07/18 07:59:53;;;;;;;22.52;14.28;;;;;;;29.79;63.74;98976.48;1729592;82;20915;-70
2021/07/18 08:02:19;;;;;;;19.25;14.20;;;;;;;29.90;61.67;98973.44;1728883;82;21513;-70
2021/07/18 08:04:45;;;;;;;23.38;15.32;;;;;;;29.93;60.24;98966.69;1721210;82;20994;-70
2021/07/18 08:07:12;;;;;;;22.32;14.43;;;;;;;29.95;60.52;98964.98;1725483;82;20928;-70
2021/07/18 08:09:38;;;;;;;23.95;13.98;;;;;;;29.99;62.38;98959.98;1724728;82;21548;-70
2021/07/18 08:12:06;;;;;;;23.62;14.07;;;;;;;30.08;62.03;98953.59;1723138;82;20978;-70
2021/07/18 08:14:33;;;;;;;20.08;14.13;;;;;;;30.22;62.97;98959.50;1730227;82;21033;-70
2021/07/18 08:16:59;;;;;;;18.70;13.35;;;;;;;30.41;61.04;98958.17;1699431;82;20917;-70
2021/07/18 08:19:26;;;;;;;20.25;14.43;;;;;;;30.59;59.38;98956.09;1729229;82;20988;-70
2021/07/18 08:21:52;;;;;;;20.15;13.43;;;;;;;30.68;59.34;98951.84;1727305;82;21168;-70
2021/07/18 08:24:18;;;;;;;21.40;14.05;;;;;;;30.78;58.26;98952.05;1732581;82;21489;-70
2021/07/18 08:26:45;;;;;;;16.27;13.98;;;;;;;30.74;59.26;98957.86;1732034;82;21117;-70
2021/07/18 08:29:11;;;;;;;19.48;14.43;;;;;;;30.74;59.57;98958.48;1721311;82;21038;-70
2021/07/18 08:31:39;;;;;;;22.75;13.55;;;;;;;30.90;59.99;98957.44;1723681;82;20980;-70
2021/07/18 08:34:06;;;;;;;18.87;12.95;;;;;;;31.21;59.78;98955.30;1727464;82;21495;-70
2021/07/18 08:36:33;;;;;;;17.12;11.53;;;;;;;31.57;58.64;98963.06;1728473;82;20978;-70
2021/07/18 08:39:00;;;;;;;11.93;10.32;;;;;;;31.93;56.15;98966.52;1722388;82;21066;-70
2021/07/18 08:41:26;;;;;;;13.13;9.90;;;;;;;32.32;53.06;98958.27;1723695;81;20979;-70
2021/07/18 08:43:53;;;;;;;11.70;9.48;;;;;;;32.64;50.86;98957.50;1722320;82;20843;-70
2021/07/18 08:46:20;;;;;;;13.95;10.03;;;;;;;32.77;47.48;98953.84;1729559;82;21492;-70
2021/07/18 08:48:48;;;;;;;14.93;10.35;;;;;;;32.82;50.36;98953.82;1729535;82;20940;-70
2021/07/18 08:51:14;;;;;;;12.88;9.73;;;;;;;32.99;48.46;98954.17;1724729;81;21428;-70
2021/07/18 08:53:41;;;;;;;13.38;9.38;;;;;;;33.25;49.47;98956.70;1722136;82;21002;-70
2021/07/18 08:56:07;;;;;;;12.65;10.00;;;;;;;33.60;48.66;98951.86;1729411;82;21063;-70
2021/07/18 08:58:35;;;;;;;11.30;8.98;;;;;;;33.94;47.40;98956.96;1689108;82;21572;-70
2021/07/18 09:01:01;;;;;;;10.63;8.58;;;;;;;34.12;47.48;98961.66;1724301;82;21490;-70
2021/07/18 09:03:27;;;;;;;14.73;9.15;;;;;;;34.21;44.18;98963.63;1726115;82;20909;-70
2021/07/18 09:06:10;;;;;;;11.68;9.13;;;;;;;34.27;45.10;98958.81;1731135;82;20984;-70
2021/07/18 09:08:45;;;;;;;10.68;9.35;;;;;;;34.44;45.06;98957.06;1723091;82;21683;-70
2021/07/18 09:11:22;;;;;;;12.47;9.50;;;;;;;34.65;46.78;98953.65;1726972;82;21145;-70
2021/07/18 09:14:02;;;;;;;16.93;10.38;;;;;;;34.76;45.15;98955.22;1729061;82;21004;-70
2021/07/18 09:16:35;;;;;;;13.90;10.45;;;;;;;34.82;45.99;98963.89;1725211;82;20940;-70
2021/07/18 09:19:29;;;;;;;13.15;9.88;;;;;;;34.99;44.77;98957.80;1727304;82;21629;-70
2021/07/18 09:22:11;;;;;;;14.07;9.83;;;;;;;35.17;43.64;98952.47;1729522;82;21099;-70
2021/07/18 09:24:45;;;;;;;;;;;;;;;35.17;45.26;98948.19;1732227;83;21139;-70
2021/07/18 09:27:25;;;;;;;14.47;9.33;;;;;;;35.30;41.83;98945.78;1727625;82;20113;-70
2021/07/18 09:30:10;;;;;;;18.57;9.65;;;;;;;35.26;40.30;98952.31;1729806;82;20897;-70
2021/07/18 09:32:40;;;;;;;15.40;9.30;;;;;;;35.19;40.54;98940.70;1725310;81;20893;-69
2021/07/18 09:35:10;;;;;;;14.03;8.88;;;;;;;35.21;40.75;98941.64;1733611;82;21018;-69
2021/07/18 09:37:39;;;;;;;12.43;8.33;;;;;;;35.26;44.47;98943.11;1732397;82;21137;-69
2021/07/18 09:40:09;;;;;;;14.03;9.20;;;;;;;35.35;40.85;98945.06;1732149;82;20881;-69
2021/07/18 09:42:47;;;;;;;14.33;9.00;;;;;;;35.36;40.78;98939.50;1733246;81;21075;-69
2021/07/18 09:45:22;;;;;;;14.13;8.88;;;;;;;35.43;41.21;98946.84;1727427;81;20943;-69
2021/07/18 09:48:05;;;;;;;14.13;9.38;;;;;;;35.49;40.16;98948.48;1723262;82;20990;-69
2021/07/18 09:50:39;;;;;;;16.80;9.85;;;;;;;35.45;40.38;98942.84;1729263;82;21149;-69
2021/07/18 09:53:22;;;;;;;10.65;9.10;;;;;;;35.47;42.21;98941.06;1724755;81;21014;-69
2021/07/18 09:56:10;;;;;;;14.23;9.45;;;;;;;35.67;39.70;98936.77;1726987;82;20927;-69
2021/07/18 09:58:40;;;;;;;12.00;8.75;;;;;;;35.80;41.91;98932.78;1727242;82;21029;-69
2021/07/18 10:01:08;;;;;;;9.70;8.43;;;;;;;36.03;40.58;98931.69;1723196;82;21003;-69
2021/07/18 10:03:35;;;;;;;16.20;9.45;;;;;;;36.18;39.49;98929.50;1726860;82;21510;-69
2021/07/18 10:06:11;;;;;;;17.15;9.55;;;;;;;36.30;39.57;98931.84;1726798;82;20881;-69
2021/07/18 10:08:43;;;;;;;12.00;9.05;;;;;;;36.36;38.97;98929.81;1727949;82;20897;-69
2021/07/18 10:11:13;;;;;;;12.65;8.13;;;;;;;36.47;38.61;98925.59;1725355;82;20998;-69
2021/07/18 10:13:43;;;;;;;9.70;8.08;;;;;;;36.44;39.05;98930.89;1723787;82;20970;-69
2021/07/18 10:16:10;;;;;;;11.40;9.15;;;;;;;36.45;37.44;98939.59;1729399;83;21038;-69
2021/07/18 10:18:38;;;;;;;11.45;8.60;;;;;;;36.54;36.83;98935.77;1728188;82;20952;-69
2021/07/18 10:21:05;;;;;;;16.25;8.35;;;;;;;36.62;35.65;98934.02;1732706;82;20955;-69
2021/07/18 10:23:38;;;;;;;12.47;9.65;;;;;;;36.63;36.52;98937.80;1728437;82;20968;-69
2021/07/18 10:26:04;;;;;;;8.90;7.80;;;;;;;36.71;38.02;98935.25;1729722;83;21443;-69
2021/07/18 10:28:31;;;;;;;13.72;8.80;;;;;;;36.81;36.15;98928.72;1726229;82;21054;-70
2021/07/18 10:31:08;;;;;;;17.17;9.85;;;;;;;36.60;37.71;98925.95;1732668;82;20948;-70
2021/07/18 10:33:34;;;;;;;10.58;8.80;;;;;;;36.29;39.82;98930.27;1726032;82;21568;-69
2021/07/18 10:36:01;;;;;;;12.63;8.58;;;;;;;35.90;38.93;98922.09;1724860;82;20903;-69
2021/07/18 10:38:29;;;;;;;11.10;9.08;;;;;;;35.78;38.98;98910.41;1733042;82;20992;-69
2021/07/18 10:40:57;;;;;;;11.30;8.80;;;;;;;35.70;41.07;98916.42;1730971;81;21038;-69
2021/07/18 10:43:47;;;;;;;10.82;8.98;;;;;;;35.79;40.36;98909.15;1723602;82;21632;-69
2021/07/18 10:46:18;;;;;;;13.13;9.75;;;;;;;36.10;40.39;98913.31;1729722;83;21467;-69
2021/07/18 10:48:51;;;;;;;12.78;9.20;;;;;;;36.33;38.70;98903.68;1701499;82;20981;-69
2021/07/18 10:51:22;;;;;;;12.88;9.83;;;;;;;36.43;39.60;98900.73;1725154;82;20915;-69
2021/07/18 10:53:51;;;;;;;;;;;;;;;36.54;39.52;98891.46;1695893;82;21141;-69
2021/07/18 10:56:19;;;;;;;16.05;9.18;;;;;;;36.67;39.22;98894.03;1724120;82;20110;-69
2021/07/18 10:58:48;;;;;;;14.90;9.20;;;;;;;36.69;38.88;98891.44;1733032;82;21571;-70
2021/07/18 11:01:31;;;;;;;17.05;9.50;;;;;;;36.57;38.49;98896.95;1731000;82;20977;-69
2021/07/18 11:03:59;;;;;;;10.30;8.15;;;;;;;36.46;40.19;98896.86;1722307;82;21054;-69
2021/07/18 11:06:31;;;;;;;9.95;8.43;;;;;;;36.51;38.55;98899.62;1727077;82;21110;-69
2021/07/18 11:09:18;;;;;;;14.25;9.03;;;;;;;36.36;38.10;98899.16;1722575;82;21061;-70
2021/07/18 11:11:50;;;;;;;13.70;9.18;;;;;;;36.34;38.14;98892.39;1724357;82;21418;-69
2021/07/18 11:14:35;;;;;;;14.43;9.30;;;;;;;36.42;38.14;98886.31;1729250;82;21004;-69
2021/07/18 11:17:08;;;;;;;13.43;9.15;;;;;;;36.63;38.84;98884.91;1717357;82;21423;-69
2021/07/18 11:20:01;;;;;;;19.52;9.15;;;;;;;36.90;39.45;98871.31;1723261;82;39273;-69
2021/07/18 11:23:01;;;;;;;14.23;8.78;;;;;;;37.12;36.71;98867.75;1733806;82;20929;-69